Spring's Hourly Summary for Monday, July 9, 2018
Hour Temp
(f)
RH
(%)
Solar Rad.
(MJ/m2)
Rainfall
(in)
Wind
(mph)
7/9/2018 12:00 AM 77 87 0 0 0.58
7/9/2018 1:00 AM 76 88 0 0 0.17
7/9/2018 2:00 AM 76 89 0 0 0.64
7/9/2018 3:00 AM 76 90 0 0 1.49
7/9/2018 4:00 AM 76 91 0 0 0.04
7/9/2018 5:00 AM 75 94 0 0 0.01
7/9/2018 6:00 AM 75 95 0 0 0
7/9/2018 7:00 AM 75 95 0.02 0 0
7/9/2018 8:00 AM 76 92 0.21 0 0
7/9/2018 9:00 AM 78 86 0.45 0 0.14
7/9/2018 10:00 AM 80 80 0.69 0 1.23
7/9/2018 11:00 AM 82 75 0.91 0 0.56
7/9/2018 12:00 PM 85 66 2.29 0 1.45
7/9/2018 1:00 PM 81 62 0.75 0.01 3.28
7/9/2018 2:00 PM 76 78 0.69 0 2.22
7/9/2018 3:00 PM 77 80 0.71 0 1.97
7/9/2018 4:00 PM 78 82 0.36 0 1.37
7/9/2018 5:00 PM 77 82 0.54 0 2.12
7/9/2018 6:00 PM 79 75 1.51 0 1.86
7/9/2018 7:00 PM 81 72 0.97 0 2.3
7/9/2018 8:00 PM 81 75 0.54 0 2.25
7/9/2018 9:00 PM 79 81 0.04 0 1.47
7/9/2018 10:00 PM 77 86 0 0 0.85
7/9/2018 11:00 PM 76 90 0 0 0.6
Data Summary 77 82 10.68 0.01 1.11